sensor_id;sensor_type;location;lat;lon;timestamp;pressure;altitude;pressure_sealevel;temperature;humidity
57290;BME280;43523;53.022;-1.178;2023-06-04T00:00:41;101862.56;;;9.61;67.18
57290;BME280;43523;53.022;-1.178;2023-06-04T00:01:43;101863.44;;;9.66;66.86
57290;BME280;43523;53.022;-1.178;2023-06-04T00:02:45;101863.78;;;9.47;71.35
57290;BME280;43523;53.022;-1.178;2023-06-04T00:03:48;101864.70;;;9.50;69.26
57290;BME280;43523;53.022;-1.178;2023-06-04T00:04:50;101862.74;;;9.29;68.12
57290;BME280;43523;53.022;-1.178;2023-06-04T00:05:53;101863.06;;;9.66;68.89
57290;BME280;43523;53.022;-1.178;2023-06-04T00:06:55;101861.52;;;9.42;68.22
57290;BME280;43523;53.022;-1.178;2023-06-04T00:07:58;101862.56;;;9.41;67.26
57290;BME280;43523;53.022;-1.178;2023-06-04T00:09:00;101864.31;;;9.39;67.12
57290;BME280;43523;53.022;-1.178;2023-06-04T00:10:04;101867.59;;;9.29;66.87
57290;BME280;43523;53.022;-1.178;2023-06-04T00:11:07;101868.64;;;9.18;66.98
57290;BME280;43523;53.022;-1.178;2023-06-04T00:12:09;101868.58;;;8.91;67.52
57290;BME280;43523;53.022;-1.178;2023-06-04T00:13:12;101869.94;;;8.96;67.64
57290;BME280;43523;53.022;-1.178;2023-06-04T00:14:14;101868.54;;;8.71;68.52
57290;BME280;43523;53.022;-1.178;2023-06-04T00:15:17;101869.29;;;8.78;68.55
57290;BME280;43523;53.022;-1.178;2023-06-04T00:16:20;101867.53;;;8.57;69.37
57290;BME280;43523;53.022;-1.178;2023-06-04T00:17:22;101868.01;;;8.74;76.20
57290;BME280;43523;53.022;-1.178;2023-06-04T00:18:24;101866.84;;;8.70;70.89
57290;BME280;43523;53.022;-1.178;2023-06-04T00:19:27;101866.87;;;8.57;70.18
57290;BME280;43523;53.022;-1.178;2023-06-04T00:20:29;101866.62;;;8.54;69.95
57290;BME280;43523;53.022;-1.178;2023-06-04T00:21:31;101866.89;;;8.26;69.94
57290;BME280;43523;53.022;-1.178;2023-06-04T00:22:33;101867.77;;;8.57;69.50
57290;BME280;43523;53.022;-1.178;2023-06-04T00:23:36;101863.11;;;8.51;69.26
57290;BME280;43523;53.022;-1.178;2023-06-04T00:24:39;101863.02;;;8.47;69.65
57290;BME280;43523;53.022;-1.178;2023-06-04T00:25:41;101862.71;;;8.65;69.84
57290;BME280;43523;53.022;-1.178;2023-06-04T00:26:44;101862.33;;;8.75;69.80
57290;BME280;43523;53.022;-1.178;2023-06-04T00:27:46;101861.09;;;8.59;69.25
57290;BME280;43523;53.022;-1.178;2023-06-04T00:28:49;101862.96;;;8.59;69.11
57290;BME280;43523;53.022;-1.178;2023-06-04T00:29:52;101860.32;;;9.07;69.08
57290;BME280;43523;53.022;-1.178;2023-06-04T00:30:54;101862.13;;;8.59;71.91
57290;BME280;43523;53.022;-1.178;2023-06-04T00:31:57;101859.40;;;8.87;69.22
57290;BME280;43523;53.022;-1.178;2023-06-04T00:33:02;101859.54;;;8.77;68.88
57290;BME280;43523;53.022;-1.178;2023-06-04T00:34:05;101858.99;;;8.70;70.60
57290;BME280;43523;53.022;-1.178;2023-06-04T00:35:07;101860.57;;;8.76;69.08
57290;BME280;43523;53.022;-1.178;2023-06-04T00:36:10;101859.79;;;8.71;68.84
57290;BME280;43523;53.022;-1.178;2023-06-04T00:37:13;101859.69;;;8.52;68.89
57290;BME280;43523;53.022;-1.178;2023-06-04T00:38:15;101862.89;;;8.29;69.12
57290;BME280;43523;53.022;-1.178;2023-06-04T00:39:17;101865.75;;;8.00;70.62
57290;BME280;43523;53.022;-1.178;2023-06-04T00:40:19;101866.23;;;8.08;70.55
57290;BME280;43523;53.022;-1.178;2023-06-04T00:41:23;101865.56;;;8.60;70.51
57290;BME280;43523;53.022;-1.178;2023-06-04T00:42:26;101867.38;;;8.16;70.32
57290;BME280;43523;53.022;-1.178;2023-06-04T00:43:28;101865.13;;;8.18;73.13
57290;BME280;43523;53.022;-1.178;2023-06-04T00:44:30;101864.94;;;8.23;99.24
57290;BME280;43523;53.022;-1.178;2023-06-04T00:45:33;101866.94;;;8.23;73.41
57290;BME280;43523;53.022;-1.178;2023-06-04T00:46:36;101863.96;;;8.11;71.42
57290;BME280;43523;53.022;-1.178;2023-06-04T00:47:38;101862.49;;;7.84;72.30
57290;BME280;43523;53.022;-1.178;2023-06-04T00:48:40;101863.14;;;8.22;71.93
57290;BME280;43523;53.022;-1.178;2023-06-04T00:49:43;101862.03;;;8.03;72.29
57290;BME280;43523;53.022;-1.178;2023-06-04T00:50:45;101865.13;;;7.75;73.05
57290;BME280;43523;53.022;-1.178;2023-06-04T00:51:49;101863.33;;;7.91;72.97
57290;BME280;43523;53.022;-1.178;2023-06-04T00:52:52;101865.86;;;7.78;73.61
57290;BME280;43523;53.022;-1.178;2023-06-04T00:53:54;101866.42;;;8.10;73.31
57290;BME280;43523;53.022;-1.178;2023-06-04T00:54:56;101868.70;;;8.17;74.72
57290;BME280;43523;53.022;-1.178;2023-06-04T00:56:00;101869.06;;;8.18;73.25
57290;BME280;43523;53.022;-1.178;2023-06-04T00:57:04;101868.20;;;7.99;88.26
57290;BME280;43523;53.022;-1.178;2023-06-04T00:58:07;101868.62;;;8.12;77.69
57290;BME280;43523;53.022;-1.178;2023-06-04T00:59:09;101868.88;;;8.44;73.76
57290;BME280;43523;53.022;-1.178;2023-06-04T01:00:13;101867.16;;;8.47;73.17
57290;BME280;43523;53.022;-1.178;2023-06-04T01:01:20;101865.68;;;8.19;72.48
57290;BME280;43523;53.022;-1.178;2023-06-04T01:02:25;101866.05;;;8.25;97.08
57290;BME280;43523;53.022;-1.178;2023-06-04T01:03:29;101865.27;;;8.61;76.76
57290;BME280;43523;53.022;-1.178;2023-06-04T01:04:37;101861.76;;;8.63;74.47
57290;BME280;43523;53.022;-1.178;2023-06-04T01:05:48;101861.71;;;8.37;72.87
57290;BME280;43523;53.022;-1.178;2023-06-04T01:06:56;101860.33;;;8.39;75.76
57290;BME280;43523;53.022;-1.178;2023-06-04T01:07:59;101859.45;;;8.69;72.87
57290;BME280;43523;53.022;-1.178;2023-06-04T01:09:02;101860.75;;;8.40;76.11
57290;BME280;43523;53.022;-1.178;2023-06-04T01:10:06;101862.15;;;8.38;74.69
57290;BME280;43523;53.022;-1.178;2023-06-04T01:11:09;101863.52;;;8.39;77.90
57290;BME280;43523;53.022;-1.178;2023-06-04T01:12:13;101863.96;;;8.65;73.75
57290;BME280;43523;53.022;-1.178;2023-06-04T01:13:15;101864.53;;;8.17;71.09
57290;BME280;43523;53.022;-1.178;2023-06-04T01:14:18;101865.19;;;8.38;71.55
57290;BME280;43523;53.022;-1.178;2023-06-04T01:15:20;101864.89;;;8.38;72.45
57290;BME280;43523;53.022;-1.178;2023-06-04T01:16:22;101864.62;;;8.38;71.63
57290;BME280;43523;53.022;-1.178;2023-06-04T01:17:29;101865.99;;;8.36;75.72
57290;BME280;43523;53.022;-1.178;2023-06-04T01:18:35;101865.68;;;8.13;71.63
57290;BME280;43523;53.022;-1.178;2023-06-04T01:20:13;101865.89;;;8.55;77.46
57290;BME280;43523;53.022;-1.178;2023-06-04T01:21:16;101865.31;;;8.23;71.64
57290;BME280;43523;53.022;-1.178;2023-06-04T01:22:25;101864.25;;;8.13;78.42
57290;BME280;43523;53.022;-1.178;2023-06-04T01:23:36;101863.46;;;8.17;86.69
57290;BME280;43523;53.022;-1.178;2023-06-04T01:24:45;101862.71;;;8.21;83.81
57290;BME280;43523;53.022;-1.178;2023-06-04T01:25:50;101862.31;;;8.68;86.52
57290;BME280;43523;53.022;-1.178;2023-06-04T01:26:53;101861.81;;;8.24;75.73
57290;BME280;43523;53.022;-1.178;2023-06-04T01:27:57;101859.38;;;8.54;74.73
57290;BME280;43523;53.022;-1.178;2023-06-04T01:28:59;101860.55;;;8.31;80.07
57290;BME280;43523;53.022;-1.178;2023-06-04T01:30:05;101860.18;;;8.36;94.77
57290;BME280;43523;53.022;-1.178;2023-06-04T01:31:07;101859.34;;;8.45;81.49
57290;BME280;43523;53.022;-1.178;2023-06-04T01:32:10;101862.18;;;8.42;98.67
57290;BME280;43523;53.022;-1.178;2023-06-04T01:33:15;101858.77;;;8.84;82.54
57290;BME280;43523;53.022;-1.178;2023-06-04T01:34:17;101860.37;;;8.23;96.48
57290;BME280;43523;53.022;-1.178;2023-06-04T01:35:19;101860.75;;;8.41;85.82
57290;BME280;43523;53.022;-1.178;2023-06-04T01:36:22;101859.48;;;8.70;80.49
57290;BME280;43523;53.022;-1.178;2023-06-04T01:37:25;101858.24;;;8.68;98.88
57290;BME280;43523;53.022;-1.178;2023-06-04T01:38:27;101860.00;;;8.68;100.00
57290;BME280;43523;53.022;-1.178;2023-06-04T01:39:30;101859.15;;;8.63;96.44
57290;BME280;43523;53.022;-1.178;2023-06-04T01:40:32;101855.16;;;8.76;95.75
57290;BME280;43523;53.022;-1.178;2023-06-04T01:41:34;101858.79;;;8.81;80.91
57290;BME280;43523;53.022;-1.178;2023-06-04T01:42:37;101856.04;;;8.81;78.22
57290;BME280;43523;53.022;-1.178;2023-06-04T01:43:39;101857.23;;;8.81;88.87
57290;BME280;43523;53.022;-1.178;2023-06-04T01:44:41;101858.92;;;8.57;75.46
57290;BME280;43523;53.022;-1.178;2023-06-04T01:45:44;101858.98;;;8.78;91.37
57290;BME280;43523;53.022;-1.178;2023-06-04T01:46:46;101863.55;;;8.50;100.00
57290;BME280;43523;53.022;-1.178;2023-06-04T01:47:49;101861.44;;;8.76;88.93
57290;BME280;43523;53.022;-1.178;2023-06-04T01:48:51;101861.26;;;8.74;80.58
57290;BME280;43523;53.022;-1.178;2023-06-04T01:49:54;101863.54;;;8.64;87.97
57290;BME280;43523;53.022;-1.178;2023-06-04T01:50:56;101861.39;;;8.47;78.61
57290;BME280;43523;53.022;-1.178;2023-06-04T01:51:59;101865.38;;;8.54;77.77
57290;BME280;43523;53.022;-1.178;2023-06-04T01:53:01;101865.03;;;8.36;77.78
57290;BME280;43523;53.022;-1.178;2023-06-04T01:54:05;101863.72;;;8.03;90.87
57290;BME280;43523;53.022;-1.178;2023-06-04T01:55:10;101861.04;;;8.64;83.65
57290;BME280;43523;53.022;-1.178;2023-06-04T01:56:14;101862.51;;;8.69;93.85
57290;BME280;43523;53.022;-1.178;2023-06-04T01:57:16;101860.30;;;8.18;100.00
57290;BME280;43523;53.022;-1.178;2023-06-04T01:58:19;101859.27;;;8.47;100.00
57290;BME280;43523;53.022;-1.178;2023-06-04T01:59:21;101859.32;;;8.59;93.15
57290;BME280;43523;53.022;-1.178;2023-06-04T02:00:23;101857.62;;;8.34;85.33
57290;BME280;43523;53.022;-1.178;2023-06-04T02:01:31;101859.86;;;8.65;90.14
57290;BME280;43523;53.022;-1.178;2023-06-04T02:02:34;101859.35;;;8.54;80.45
57290;BME280;43523;53.022;-1.178;2023-06-04T02:03:36;101862.11;;;8.36;78.06
57290;BME280;43523;53.022;-1.178;2023-06-04T02:04:38;101863.46;;;7.96;79.06
57290;BME280;43523;53.022;-1.178;2023-06-04T02:05:41;101862.54;;;8.20;79.55
57290;BME280;43523;53.022;-1.178;2023-06-04T02:06:43;101864.91;;;8.14;79.70
57290;BME280;43523;53.022;-1.178;2023-06-04T02:07:46;101862.02;;;8.14;82.99
57290;BME280;43523;53.022;-1.178;2023-06-04T02:08:48;101865.25;;;7.82;80.64
57290;BME280;43523;53.022;-1.178;2023-06-04T02:09:50;101865.42;;;7.76;86.02
57290;BME280;43523;53.022;-1.178;2023-06-04T02:10:53;101865.32;;;8.05;80.83
57290;BME280;43523;53.022;-1.178;2023-06-04T02:11:55;101866.78;;;8.01;80.03
57290;BME280;43523;53.022;-1.178;2023-06-04T02:12:59;101865.25;;;7.48;79.64
57290;BME280;43523;53.022;-1.178;2023-06-04T02:14:04;101866.46;;;7.68;79.42
57290;BME280;43523;53.022;-1.178;2023-06-04T02:15:09;101864.25;;;7.70;82.10
57290;BME280;43523;53.022;-1.178;2023-06-04T02:16:12;101863.56;;;7.77;79.41
57290;BME280;43523;53.022;-1.178;2023-06-04T02:17:15;101863.14;;;7.54;80.08
57290;BME280;43523;53.022;-1.178;2023-06-04T02:18:18;101864.55;;;7.32;82.06
57290;BME280;43523;53.022;-1.178;2023-06-04T02:19:21;101865.91;;;7.54;90.70
57290;BME280;43523;53.022;-1.178;2023-06-04T02:20:23;101868.61;;;7.92;85.90
57290;BME280;43523;53.022;-1.178;2023-06-04T02:21:26;101871.72;;;7.67;84.58
57290;BME280;43523;53.022;-1.178;2023-06-04T02:22:28;101869.40;;;7.94;100.00
57290;BME280;43523;53.022;-1.178;2023-06-04T02:23:31;101868.92;;;8.06;87.28
57290;BME280;43523;53.022;-1.178;2023-06-04T02:24:33;101871.07;;;8.03;82.72
57290;BME280;43523;53.022;-1.178;2023-06-04T02:25:35;101871.12;;;8.07;100.00
57290;BME280;43523;53.022;-1.178;2023-06-04T02:26:38;101872.27;;;8.16;100.00
57290;BME280;43523;53.022;-1.178;2023-06-04T02:27:40;101874.08;;;7.93;88.46
57290;BME280;43523;53.022;-1.178;2023-06-04T02:28:43;101875.95;;;8.17;84.49
57290;BME280;43523;53.022;-1.178;2023-06-04T02:29:45;101876.47;;;8.17;82.40
57290;BME280;43523;53.022;-1.178;2023-06-04T02:30:48;101875.72;;;8.13;81.20
57290;BME280;43523;53.022;-1.178;2023-06-04T02:31:50;101879.23;;;8.12;83.32
57290;BME280;43523;53.022;-1.178;2023-06-04T02:32:52;101878.24;;;7.84;80.81
57290;BME280;43523;53.022;-1.178;2023-06-04T02:33:55;101878.11;;;8.10;79.91
57290;BME280;43523;53.022;-1.178;2023-06-04T02:34:57;101877.80;;;8.10;86.07
57290;BME280;43523;53.022;-1.178;2023-06-04T02:36:00;101878.77;;;8.32;81.18
57290;BME280;43523;53.022;-1.178;2023-06-04T02:37:04;101879.72;;;7.76;79.47
57290;BME280;43523;53.022;-1.178;2023-06-04T02:38:07;101882.04;;;7.95;90.03
57290;BME280;43523;53.022;-1.178;2023-06-04T02:39:10;101882.93;;;8.05;100.00
57290;BME280;43523;53.022;-1.178;2023-06-04T02:40:13;101882.49;;;7.89;89.86
57290;BME280;43523;53.022;-1.178;2023-06-04T02:41:15;101883.23;;;7.66;84.52
57290;BME280;43523;53.022;-1.178;2023-06-04T02:42:18;101881.69;;;7.36;94.45
57290;BME280;43523;53.022;-1.178;2023-06-04T02:43:20;101880.83;;;7.32;91.64
57290;BME280;43523;53.022;-1.178;2023-06-04T02:44:23;101881.11;;;7.78;87.83
57290;BME280;43523;53.022;-1.178;2023-06-04T02:45:25;101879.83;;;7.70;89.29
57290;BME280;43523;53.022;-1.178;2023-06-04T02:46:28;101876.21;;;7.77;99.96
57290;BME280;43523;53.022;-1.178;2023-06-04T02:47:30;101875.66;;;7.75;90.45
57290;BME280;43523;53.022;-1.178;2023-06-04T02:48:32;101876.59;;;7.73;90.28
57290;BME280;43523;53.022;-1.178;2023-06-04T02:49:35;101877.90;;;7.77;100.00
57290;BME280;43523;53.022;-1.178;2023-06-04T02:50:37;101875.72;;;7.82;96.76
57290;BME280;43523;53.022;-1.178;2023-06-04T02:51:40;101872.13;;;7.82;95.09
57290;BME280;43523;53.022;-1.178;2023-06-04T02:52:42;101870.71;;;7.81;86.46
57290;BME280;43523;53.022;-1.178;2023-06-04T02:53:45;101871.52;;;7.77;84.43
57290;BME280;43523;53.022;-1.178;2023-06-04T02:54:47;101871.02;;;7.66;82.64
57290;BME280;43523;53.022;-1.178;2023-06-04T02:55:50;101869.93;;;7.65;83.12
57290;BME280;43523;53.022;-1.178;2023-06-04T02:56:52;101870.86;;;7.59;82.49
57290;BME280;43523;53.022;-1.178;2023-06-04T02:57:55;101874.90;;;7.45;81.60
57290;BME280;43523;53.022;-1.178;2023-06-04T02:58:57;101878.44;;;7.42;82.47
57290;BME280;43523;53.022;-1.178;2023-06-04T03:00:00;101878.33;;;7.32;83.39
57290;BME280;43523;53.022;-1.178;2023-06-04T03:01:02;101880.03;;;7.20;83.44
57290;BME280;43523;53.022;-1.178;2023-06-04T03:02:05;101881.82;;;7.71;87.56
57290;BME280;43523;53.022;-1.178;2023-06-04T03:03:08;101879.70;;;7.33;88.82
57290;BME280;43523;53.022;-1.178;2023-06-04T03:04:10;101879.63;;;7.26;84.57
57290;BME280;43523;53.022;-1.178;2023-06-04T03:05:15;101877.43;;;7.28;85.83
57290;BME280;43523;53.022;-1.178;2023-06-04T03:06:19;101877.48;;;7.30;100.00
57290;BME280;43523;53.022;-1.178;2023-06-04T03:07:21;101878.10;;;7.45;92.96
57290;BME280;43523;53.022;-1.178;2023-06-04T03:08:23;101874.18;;;7.45;85.85
57290;BME280;43523;53.022;-1.178;2023-06-04T03:09:26;101874.01;;;7.41;82.62
57290;BME280;43523;53.022;-1.178;2023-06-04T03:10:28;101872.75;;;7.35;81.45
57290;BME280;43523;53.022;-1.178;2023-06-04T03:11:31;101873.40;;;7.55;81.60
57290;BME280;43523;53.022;-1.178;2023-06-04T03:12:33;101874.83;;;7.22;81.76
57290;BME280;43523;53.022;-1.178;2023-06-04T03:13:36;101877.14;;;7.43;83.77
57290;BME280;43523;53.022;-1.178;2023-06-04T03:14:38;101874.92;;;7.40;86.11
57290;BME280;43523;53.022;-1.178;2023-06-04T03:15:40;101877.46;;;7.66;82.56
57290;BME280;43523;53.022;-1.178;2023-06-04T03:16:43;101875.47;;;7.10;81.52
57290;BME280;43523;53.022;-1.178;2023-06-04T03:17:45;101875.14;;;7.33;81.08
57290;BME280;43523;53.022;-1.178;2023-06-04T03:18:47;101875.90;;;7.12;82.42
57290;BME280;43523;53.022;-1.178;2023-06-04T03:19:50;101877.36;;;7.19;96.55
57290;BME280;43523;53.022;-1.178;2023-06-04T03:20:52;101875.48;;;7.27;89.67
57290;BME280;43523;53.022;-1.178;2023-06-04T03:21:55;101873.54;;;7.33;91.04
57290;BME280;43523;53.022;-1.178;2023-06-04T03:22:57;101871.77;;;7.29;85.62
57290;BME280;43523;53.022;-1.178;2023-06-04T03:24:00;101871.54;;;7.15;81.35
57290;BME280;43523;53.022;-1.178;2023-06-04T03:25:02;101872.03;;;7.11;83.07
57290;BME280;43523;53.022;-1.178;2023-06-04T03:26:05;101869.34;;;7.07;81.92
57290;BME280;43523;53.022;-1.178;2023-06-04T03:27:08;101871.77;;;7.57;84.17
57290;BME280;43523;53.022;-1.178;2023-06-04T03:28:10;101866.31;;;7.25;83.11
57290;BME280;43523;53.022;-1.178;2023-06-04T03:29:13;101867.86;;;7.29;85.06
57290;BME280;43523;53.022;-1.178;2023-06-04T03:30:15;101870.76;;;7.63;89.86
57290;BME280;43523;53.022;-1.178;2023-06-04T03:31:17;101868.70;;;7.16;86.04
57290;BME280;43523;53.022;-1.178;2023-06-04T03:32:20;101870.41;;;7.68;91.97
57290;BME280;43523;53.022;-1.178;2023-06-04T03:33:22;101870.06;;;7.26;86.52
57290;BME280;43523;53.022;-1.178;2023-06-04T03:34:25;101870.29;;;7.36;100.00
57290;BME280;43523;53.022;-1.178;2023-06-04T03:35:27;101866.96;;;7.45;94.04
57290;BME280;43523;53.022;-1.178;2023-06-04T03:36:30;101866.37;;;7.51;98.72
57290;BME280;43523;53.022;-1.178;2023-06-04T03:37:32;101868.49;;;7.74;98.16
57290;BME280;43523;53.022;-1.178;2023-06-04T03:38:35;101866.05;;;7.77;93.84
57290;BME280;43523;53.022;-1.178;2023-06-04T03:39:37;101868.46;;;7.76;100.00
57290;BME280;43523;53.022;-1.178;2023-06-04T03:40:39;101869.05;;;7.68;92.13
57290;BME280;43523;53.022;-1.178;2023-06-04T03:41:42;101868.42;;;7.78;87.67
57290;BME280;43523;53.022;-1.178;2023-06-04T03:42:45;101870.58;;;7.43;85.16
57290;BME280;43523;53.022;-1.178;2023-06-04T03:43:47;101871.89;;;7.49;84.69
57290;BME280;43523;53.022;-1.178;2023-06-04T03:44:50;101874.52;;;7.52;84.80
57290;BME280;43523;53.022;-1.178;2023-06-04T03:45:52;101874.19;;;7.53;85.85
57290;BME280;43523;53.022;-1.178;2023-06-04T03:46:54;101872.15;;;7.66;100.00
57290;BME280;43523;53.022;-1.178;2023-06-04T03:47:56;101876.05;;;6.19;100.00
57290;BME280;43523;53.022;-1.178;2023-06-04T03:48:59;101876.44;;;6.33;100.00
57290;BME280;43523;53.022;-1.178;2023-06-04T03:50:01;101875.54;;;6.68;100.00
57290;BME280;43523;53.022;-1.178;2023-06-04T03:51:04;101873.83;;;7.46;100.00
57290;BME280;43523;53.022;-1.178;2023-06-04T03:52:06;101871.81;;;7.27;100.00
57290;BME280;43523;53.022;-1.178;2023-06-04T03:53:09;101872.39;;;6.81;100.00
57290;BME280;43523;53.022;-1.178;2023-06-04T03:54:13;101871.28;;;6.82;100.00
57290;BME280;43523;53.022;-1.178;2023-06-04T03:55:16;101869.24;;;6.88;100.00
57290;BME280;43523;53.022;-1.178;2023-06-04T03:56:19;101868.08;;;6.71;100.00
57290;BME280;43523;53.022;-1.178;2023-06-04T03:57:21;101866.95;;;7.28;100.00
57290;BME280;43523;53.022;-1.178;2023-06-04T03:58:23;101870.04;;;6.37;100.00
57290;BME280;43523;53.022;-1.178;2023-06-04T03:59:26;101873.86;;;5.95;100.00
57290;BME280;43523;53.022;-1.178;2023-06-04T04:00:28;101872.60;;;6.34;100.00
57290;BME280;43523;53.022;-1.178;2023-06-04T04:01:31;101875.64;;;5.43;100.00
57290;BME280;43523;53.022;-1.178;2023-06-04T04:02:33;101870.64;;;6.47;100.00
57290;BME280;43523;53.022;-1.178;2023-06-04T04:03:36;101865.68;;;6.40;100.00
57290;BME280;43523;53.022;-1.178;2023-06-04T04:04:38;101866.64;;;6.39;100.00
57290;BME280;43523;53.022;-1.178;2023-06-04T04:05:41;101864.98;;;6.67;100.00
57290;BME280;43523;53.022;-1.178;2023-06-04T04:06:43;101863.49;;;7.52;100.00
57290;BME280;43523;53.022;-1.178;2023-06-04T04:07:46;101861.56;;;7.20;100.00
57290;BME280;43523;53.022;-1.178;2023-06-04T04:08:48;101863.99;;;7.69;100.00
57290;BME280;43523;53.022;-1.178;2023-06-04T04:09:51;101864.53;;;7.95;100.00
57290;BME280;43523;53.022;-1.178;2023-06-04T04:10:54;101865.79;;;7.91;100.00
57290;BME280;43523;53.022;-1.178;2023-06-04T04:11:56;101863.36;;;7.52;100.00
57290;BME280;43523;53.022;-1.178;2023-06-04T04:12:58;101864.82;;;7.79;100.00
57290;BME280;43523;53.022;-1.178;2023-06-04T04:14:01;101864.64;;;8.34;100.00
57290;BME280;43523;53.022;-1.178;2023-06-04T04:15:05;101865.07;;;8.46;100.00
57290;BME280;43523;53.022;-1.178;2023-06-04T04:16:07;101864.53;;;8.12;100.00
57290;BME280;43523;53.022;-1.178;2023-06-04T04:17:10;101861.97;;;8.26;100.00
57290;BME280;43523;53.022;-1.178;2023-06-04T04:18:13;101864.98;;;8.03;100.00
57290;BME280;43523;53.022;-1.178;2023-06-04T04:19:15;101863.65;;;8.21;100.00
57290;BME280;43523;53.022;-1.178;2023-06-04T04:20:17;101864.21;;;7.81;100.00
57290;BME280;43523;53.022;-1.178;2023-06-04T04:21:19;101864.04;;;7.50;100.00
57290;BME280;43523;53.022;-1.178;2023-06-04T04:22:22;101865.94;;;7.89;100.00
57290;BME280;43523;53.022;-1.178;2023-06-04T04:23:24;101865.44;;;7.57;100.00
57290;BME280;43523;53.022;-1.178;2023-06-04T04:24:27;101867.94;;;7.50;100.00
57290;BME280;43523;53.022;-1.178;2023-06-04T04:25:30;101869.44;;;8.14;100.00
57290;BME280;43523;53.022;-1.178;2023-06-04T04:26:32;101869.26;;;7.53;100.00
57290;BME280;43523;53.022;-1.178;2023-06-04T04:27:35;101869.94;;;7.97;100.00
57290;BME280;43523;53.022;-1.178;2023-06-04T04:28:37;101870.15;;;8.11;100.00
57290;BME280;43523;53.022;-1.178;2023-06-04T04:29:40;101870.78;;;8.27;100.00
57290;BME280;43523;53.022;-1.178;2023-06-04T04:30:41;101871.09;;;8.20;100.00
57290;BME280;43523;53.022;-1.178;2023-06-04T04:31:44;101870.05;;;7.87;100.00
57290;BME280;43523;53.022;-1.178;2023-06-04T04:32:45;101870.83;;;8.09;100.00
57290;BME280;43523;53.022;-1.178;2023-06-04T04:33:48;101869.89;;;8.18;100.00
57290;BME280;43523;53.022;-1.178;2023-06-04T04:34:51;101868.54;;;7.80;100.00
57290;BME280;43523;53.022;-1.178;2023-06-04T04:35:54;101867.67;;;7.80;100.00
57290;BME280;43523;53.022;-1.178;2023-06-04T04:36:56;101869.32;;;7.68;100.00
57290;BME280;43523;53.022;-1.178;2023-06-04T04:37:58;101869.38;;;7.95;100.00
57290;BME280;43523;53.022;-1.178;2023-06-04T04:39:00;101871.23;;;8.16;100.00
57290;BME280;43523;53.022;-1.178;2023-06-04T04:40:04;101873.01;;;7.64;100.00
57290;BME280;43523;53.022;-1.178;2023-06-04T04:41:07;101871.10;;;7.98;100.00
57290;BME280;43523;53.022;-1.178;2023-06-04T04:42:09;101872.64;;;7.82;100.00
57290;BME280;43523;53.022;-1.178;2023-06-04T04:43:12;101872.91;;;8.00;100.00
57290;BME280;43523;53.022;-1.178;2023-06-04T04:44:15;101871.04;;;7.83;100.00
57290;BME280;43523;53.022;-1.178;2023-06-04T04:45:17;101870.16;;;7.61;100.00
57290;BME280;43523;53.022;-1.178;2023-06-04T04:46:19;101871.13;;;7.39;100.00
57290;BME280;43523;53.022;-1.178;2023-06-04T04:47:21;101869.53;;;7.14;100.00
57290;BME280;43523;53.022;-1.178;2023-06-04T04:48:24;101871.00;;;7.52;100.00
57290;BME280;43523;53.022;-1.178;2023-06-04T04:49:27;101868.41;;;7.33;100.00
57290;BME280;43523;53.022;-1.178;2023-06-04T04:50:29;101868.88;;;7.69;100.00
57290;BME280;43523;53.022;-1.178;2023-06-04T04:51:31;101872.10;;;6.73;100.00
57290;BME280;43523;53.022;-1.178;2023-06-04T04:52:33;101873.96;;;6.98;100.00
57290;BME280;43523;53.022;-1.178;2023-06-04T04:53:36;101868.66;;;7.63;100.00
57290;BME280;43523;53.022;-1.178;2023-06-04T04:54:38;101868.99;;;7.55;100.00
57290;BME280;43523;53.022;-1.178;2023-06-04T04:55:40;101868.15;;;7.72;100.00
57290;BME280;43523;53.022;-1.178;2023-06-04T04:56:42;101870.28;;;7.05;100.00
57290;BME280;43523;53.022;-1.178;2023-06-04T04:57:45;101872.27;;;7.50;100.00
57290;BME280;43523;53.022;-1.178;2023-06-04T04:58:47;101870.48;;;7.61;100.00
57290;BME280;43523;53.022;-1.178;2023-06-04T04:59:50;101872.96;;;7.43;100.00
57290;BME280;43523;53.022;-1.178;2023-06-04T05:00:52;101873.40;;;7.55;100.00
57290;BME280;43523;53.022;-1.178;2023-06-04T05:01:54;101873.06;;;7.24;100.00
57290;BME280;43523;53.022;-1.178;2023-06-04T05:02:56;101876.44;;;7.41;100.00
57290;BME280;43523;53.022;-1.178;2023-06-04T05:03:58;101877.12;;;7.77;100.00
57290;BME280;43523;53.022;-1.178;2023-06-04T05:05:00;101876.09;;;7.73;100.00
57290;BME280;43523;53.022;-1.178;2023-06-04T05:06:04;101877.01;;;7.96;100.00
57290;BME280;43523;53.022;-1.178;2023-06-04T05:07:07;101876.85;;;7.88;100.00
57290;BME280;43523;53.022;-1.178;2023-06-04T05:08:09;101875.96;;;7.75;100.00
57290;BME280;43523;53.022;-1.178;2023-06-04T05:09:11;101876.26;;;7.58;100.00
57290;BME280;43523;53.022;-1.178;2023-06-04T05:10:15;101879.69;;;6.36;100.00
57290;BME280;43523;53.022;-1.178;2023-06-04T05:11:16;101881.92;;;6.79;100.00
57290;BME280;43523;53.022;-1.178;2023-06-04T05:12:19;101884.87;;;6.51;100.00
57290;BME280;43523;53.022;-1.178;2023-06-04T05:13:21;101883.89;;;7.02;100.00
57290;BME280;43523;53.022;-1.178;2023-06-04T05:14:24;101881.65;;;7.27;100.00
57290;BME280;43523;53.022;-1.178;2023-06-04T05:15:26;101880.35;;;7.13;100.00
57290;BME280;43523;53.022;-1.178;2023-06-04T05:16:29;101882.93;;;7.14;100.00
57290;BME280;43523;53.022;-1.178;2023-06-04T05:17:31;101883.01;;;7.12;100.00
57290;BME280;43523;53.022;-1.178;2023-06-04T05:18:33;101888.04;;;7.33;100.00
57290;BME280;43523;53.022;-1.178;2023-06-04T05:19:36;101888.60;;;6.95;100.00
57290;BME280;43523;53.022;-1.178;2023-06-04T05:20:39;101892.25;;;6.89;100.00
57290;BME280;43523;53.022;-1.178;2023-06-04T05:21:41;101892.91;;;7.12;100.00
57290;BME280;43523;53.022;-1.178;2023-06-04T05:22:43;101890.83;;;7.25;100.00
57290;BME280;43523;53.022;-1.178;2023-06-04T05:23:46;101893.66;;;6.63;100.00
57290;BME280;43523;53.022;-1.178;2023-06-04T05:24:48;101893.29;;;6.64;100.00
57290;BME280;43523;53.022;-1.178;2023-06-04T05:25:50;101898.92;;;6.44;100.00
57290;BME280;43523;53.022;-1.178;2023-06-04T05:26:53;101900.50;;;6.59;100.00